createdAt,value
2024-01-27T00:02:11.932Z,100.00
2024-01-27T00:05:13.821Z,100.00
2024-01-27T00:08:15.669Z,100.00
2024-01-27T00:11:17.504Z,100.00
2024-01-27T00:14:19.193Z,100.00
2024-01-27T00:17:26.256Z,100.00
2024-01-27T00:20:27.963Z,100.00
2024-01-27T00:23:29.647Z,100.00
2024-01-27T00:26:31.380Z,100.00
2024-01-27T00:29:33.052Z,100.00
2024-01-27T00:32:35.500Z,100.00
2024-01-27T00:35:37.310Z,100.00
2024-01-27T00:38:39.980Z,100.00
2024-01-27T00:41:41.690Z,100.00
2024-01-27T00:44:43.393Z,100.00
2024-01-27T00:47:45.528Z,100.00
2024-01-27T00:50:47.457Z,100.00
2024-01-27T00:53:49.097Z,100.00
2024-01-27T00:56:50.858Z,100.00
2024-01-27T00:59:52.581Z,100.00
2024-01-27T01:02:54.337Z,100.00
2024-01-27T01:05:56.128Z,100.00
2024-01-27T01:08:57.853Z,100.00
2024-01-27T01:11:59.658Z,100.00
2024-01-27T01:15:01.376Z,100.00
2024-01-27T01:18:03.183Z,100.00
2024-01-27T01:21:05.033Z,100.00
2024-01-27T01:24:06.823Z,100.00
2024-01-27T01:27:08.593Z,100.00
2024-01-27T01:30:10.988Z,100.00
2024-01-27T01:33:12.996Z,100.00
2024-01-27T01:36:14.976Z,100.00
2024-01-27T01:39:16.763Z,100.00
2024-01-27T01:42:18.535Z,100.00
2024-01-27T01:45:21.445Z,100.00
2024-01-27T01:48:23.365Z,100.00
2024-01-27T01:51:27.280Z,100.00
2024-01-27T01:54:29.535Z,100.00
2024-01-27T01:57:31.358Z,100.00
2024-01-27T02:00:33.983Z,100.00
2024-01-27T02:03:35.906Z,100.00
2024-01-27T02:06:37.924Z,100.00
2024-01-27T02:09:39.630Z,100.00
2024-01-27T02:12:41.600Z,100.00
2024-01-27T02:15:43.304Z,100.00
2024-01-27T02:18:45.383Z,100.00
2024-01-27T02:21:47.282Z,100.00
2024-01-27T02:24:49.019Z,100.00
2024-01-27T02:27:50.699Z,100.00
2024-01-27T02:30:52.401Z,100.00
2024-01-27T02:33:54.231Z,100.00
2024-01-27T02:36:56.245Z,100.00
2024-01-27T02:39:57.982Z,100.00
2024-01-27T02:42:59.629Z,100.00
2024-01-27T02:46:01.306Z,100.00
2024-01-27T02:49:03.062Z,100.00
2024-01-27T02:52:04.879Z,100.00
2024-01-27T02:55:07.197Z,100.00
2024-01-27T02:58:08.984Z,100.00
2024-01-27T03:01:10.760Z,100.00
2024-01-27T03:04:12.626Z,100.00
2024-01-27T03:07:14.400Z,100.00
2024-01-27T03:10:16.178Z,100.00
2024-01-27T03:13:18.044Z,100.00
2024-01-27T03:16:21.067Z,100.00
2024-01-27T03:19:23.297Z,100.00
2024-01-27T03:22:25.057Z,100.00
2024-01-27T03:25:26.985Z,100.00
2024-01-27T03:28:28.712Z,100.00
2024-01-27T03:31:35.330Z,100.00
2024-01-27T03:34:37.111Z,100.00
2024-01-27T03:37:38.952Z,100.00
2024-01-27T03:40:40.695Z,100.00
2024-01-27T03:43:42.727Z,100.00
2024-01-27T03:46:44.418Z,100.00
2024-01-27T03:49:46.311Z,100.00
2024-01-27T03:52:48.155Z,100.00
2024-01-27T03:55:49.927Z,100.00
2024-01-27T03:58:51.660Z,100.00
2024-01-27T04:01:53.346Z,100.00
2024-01-27T04:04:55.154Z,100.00
2024-01-27T04:07:57.519Z,100.00
2024-01-27T04:10:59.544Z,100.00
2024-01-27T04:14:01.285Z,100.00
2024-01-27T04:17:03.130Z,100.00
2024-01-27T04:20:05.884Z,100.00
2024-01-27T04:23:07.643Z,100.00
2024-01-27T04:26:10.817Z,100.00
2024-01-27T04:29:16.460Z,100.00
2024-01-27T04:32:18.378Z,100.00
2024-01-27T04:35:20.183Z,100.00
2024-01-27T04:38:22.023Z,100.00
2024-01-27T04:41:24.089Z,100.00
2024-01-27T04:44:25.788Z,100.00
2024-01-27T04:47:27.551Z,100.00
2024-01-27T04:50:29.269Z,100.00
2024-01-27T04:53:30.912Z,100.00
2024-01-27T04:56:32.642Z,100.00
2024-01-27T04:59:34.384Z,100.00
2024-01-27T05:02:36.086Z,100.00
2024-01-27T05:05:37.783Z,100.00
2024-01-27T05:08:40.135Z,100.00
2024-01-27T05:11:44.028Z,100.00
2024-01-27T05:14:46.675Z,100.00
2024-01-27T05:17:48.576Z,100.00
2024-01-27T05:20:50.398Z,100.00
2024-01-27T05:23:52.297Z,100.00
2024-01-27T05:26:54.074Z,100.00
2024-01-27T05:29:55.815Z,100.00
2024-01-27T05:32:57.880Z,100.00
2024-01-27T05:35:59.713Z,100.00
2024-01-27T05:39:01.471Z,100.00
2024-01-27T05:42:03.935Z,100.00
2024-01-27T05:45:06.353Z,100.00
2024-01-27T05:48:08.680Z,100.00
2024-01-27T05:51:10.574Z,100.00
2024-01-27T05:54:15.999Z,100.00
2024-01-27T05:57:17.705Z,100.00
2024-01-27T06:00:19.654Z,100.00
2024-01-27T06:03:21.472Z,100.00
2024-01-27T06:06:23.416Z,100.00
2024-01-27T06:09:25.201Z,100.00
2024-01-27T06:12:27.129Z,100.00
2024-01-27T06:15:28.878Z,100.00
2024-01-27T06:18:30.848Z,100.00
2024-01-27T06:21:32.701Z,100.00
2024-01-27T06:24:34.555Z,100.00
2024-01-27T06:27:36.313Z,100.00
2024-01-27T06:30:38.090Z,100.00
2024-01-27T06:33:39.947Z,100.00
2024-01-27T06:36:42.105Z,100.00
2024-01-27T06:39:43.853Z,100.00
2024-01-27T06:42:45.539Z,100.00
2024-01-27T06:45:47.288Z,100.00
2024-01-27T06:48:49.072Z,100.00
2024-01-27T06:51:50.872Z,100.00
2024-01-27T06:54:52.551Z,100.00
2024-01-27T06:57:54.852Z,100.00
2024-01-27T07:00:56.632Z,95.21
2024-01-27T07:03:58.458Z,91.52
2024-01-27T07:07:00.579Z,87.88
2024-01-27T07:10:02.736Z,84.49
2024-01-27T07:13:04.640Z,89.80
2024-01-27T07:16:06.608Z,90.40
2024-01-27T07:19:08.433Z,81.01
2024-01-27T07:22:10.612Z,75.31
2024-01-27T07:25:12.407Z,68.91
2024-01-27T07:28:16.603Z,66.59
2024-01-27T07:31:18.596Z,66.83
2024-01-27T07:34:20.777Z,63.45
2024-01-27T07:37:22.769Z,61.88
2024-01-27T07:40:24.456Z,57.36
2024-01-27T07:43:27.080Z,53.92
2024-01-27T07:46:28.789Z,50.09
2024-01-27T07:49:30.571Z,48.68
2024-01-27T07:52:32.460Z,47.38
2024-01-27T07:55:34.121Z,47.96
2024-01-27T07:58:35.931Z,47.42
2024-01-27T08:01:37.642Z,46.54
2024-01-27T08:04:39.849Z,45.37
2024-01-27T08:07:41.641Z,44.34
2024-01-27T08:10:43.335Z,42.13
2024-01-27T08:13:45.010Z,38.62
2024-01-27T08:16:46.770Z,35.77
2024-01-27T08:19:49.558Z,33.79
2024-01-27T08:22:54.248Z,32.22
2024-01-27T08:25:55.883Z,32.23
2024-01-27T08:28:59.356Z,29.40
2024-01-27T08:32:01.965Z,27.95
2024-01-27T08:35:03.791Z,25.52
2024-01-27T08:38:07.261Z,26.38
2024-01-27T08:41:09.335Z,26.74
2024-01-27T08:44:11.078Z,26.35
2024-01-27T08:47:12.799Z,25.98
2024-01-27T08:50:14.585Z,26.16
2024-01-27T08:53:16.201Z,25.83
2024-01-27T08:56:21.311Z,26.39
2024-01-27T08:59:22.993Z,26.15
2024-01-27T09:02:24.717Z,24.90
2024-01-27T09:05:26.777Z,25.27
2024-01-27T09:08:28.476Z,25.31
2024-01-27T09:11:31.471Z,25.27
2024-01-27T09:14:34.733Z,24.82
2024-01-27T09:17:37.101Z,24.45
2024-01-27T09:20:38.817Z,25.71
2024-01-27T09:23:40.665Z,25.89
2024-01-27T09:26:42.354Z,24.83
2024-01-27T09:29:44.079Z,24.42
2024-01-27T09:32:45.847Z,24.51
2024-01-27T09:35:47.868Z,24.83
2024-01-27T09:38:49.668Z,24.36
2024-01-27T09:41:52.727Z,23.73
2024-01-27T09:44:57.532Z,24.42
2024-01-27T09:48:02.433Z,23.87
2024-01-27T09:51:05.845Z,24.63
2024-01-27T09:54:08.021Z,23.83
2024-01-27T09:57:10.462Z,23.80
2024-01-27T10:00:13.228Z,23.57
2024-01-27T10:03:15.493Z,23.80
2024-01-27T10:06:17.439Z,22.35
2024-01-27T10:09:19.440Z,23.72
2024-01-27T10:12:22.088Z,24.12
2024-01-27T10:15:24.345Z,23.86
2024-01-27T10:18:26.139Z,23.68
2024-01-27T10:21:28.465Z,23.17
2024-01-27T10:24:32.288Z,23.34
2024-01-27T10:27:34.227Z,22.52
2024-01-27T10:30:36.187Z,24.14
2024-01-27T10:33:38.199Z,24.03
2024-01-27T10:36:42.306Z,23.31
2024-01-27T10:39:44.262Z,23.56
2024-01-27T10:42:47.320Z,22.78
2024-01-27T10:45:49.164Z,21.92
2024-01-27T10:48:54.723Z,22.14
2024-01-27T10:51:58.646Z,24.91
2024-01-27T10:55:04.122Z,29.95
2024-01-27T10:58:05.835Z,32.01
2024-01-27T11:01:11.100Z,31.51
2024-01-27T11:04:15.245Z,28.96
2024-01-27T11:07:19.518Z,26.31
2024-01-27T11:10:21.197Z,26.42
2024-01-27T11:13:23.081Z,26.97
2024-01-27T11:16:25.052Z,27.70
2024-01-27T11:19:28.096Z,30.45
2024-01-27T11:22:31.727Z,32.17
2024-01-27T11:25:33.707Z,32.03
2024-01-27T11:28:37.133Z,33.79
2024-01-27T11:31:41.677Z,35.58
2024-01-27T11:34:47.109Z,34.70
2024-01-27T11:37:49.374Z,33.19
2024-01-27T11:40:51.314Z,34.11
2024-01-27T11:43:54.788Z,35.76
2024-01-27T11:46:56.590Z,35.42
2024-01-27T11:49:59.448Z,36.31
2024-01-27T11:53:01.704Z,36.82
2024-01-27T11:56:05.672Z,35.41
2024-01-27T11:59:07.338Z,36.88
2024-01-27T12:02:09.486Z,31.84
2024-01-27T12:05:11.519Z,31.75
2024-01-27T12:08:13.243Z,34.82
2024-01-27T12:11:16.616Z,36.82
2024-01-27T12:14:19.879Z,37.67
2024-01-27T12:17:21.674Z,36.76
2024-01-27T12:20:24.345Z,33.40
2024-01-27T12:23:26.031Z,35.05
2024-01-27T12:26:30.335Z,37.32
2024-01-27T12:29:34.562Z,39.69
2024-01-27T12:32:36.354Z,39.84
2024-01-27T12:35:38.052Z,40.74
2024-01-27T12:38:39.800Z,41.72
2024-01-27T12:41:41.503Z,42.53
2024-01-27T12:44:43.388Z,41.22
2024-01-27T12:47:45.446Z,41.42
2024-01-27T12:50:47.106Z,40.59
2024-01-27T12:53:48.910Z,40.99
2024-01-27T12:56:50.664Z,42.24
2024-01-27T12:59:52.859Z,43.51
2024-01-27T13:02:54.680Z,44.13
2024-01-27T13:05:57.885Z,44.73
2024-01-27T13:08:59.718Z,45.09
2024-01-27T13:12:01.636Z,45.22
2024-01-27T13:15:03.581Z,44.97
2024-01-27T13:18:05.667Z,45.14
2024-01-27T13:21:07.605Z,45.47
2024-01-27T13:24:10.226Z,45.26
2024-01-27T13:27:12.482Z,44.80
2024-01-27T13:30:14.502Z,46.31
2024-01-27T13:33:19.681Z,46.54
2024-01-27T13:36:21.470Z,47.86
2024-01-27T13:39:23.240Z,47.44
2024-01-27T13:42:25.019Z,48.10
2024-01-27T13:45:26.789Z,49.14
2024-01-27T13:48:28.836Z,49.55
2024-01-27T13:51:30.705Z,51.80
2024-01-27T13:54:34.274Z,54.24
2024-01-27T13:57:36.309Z,53.61
2024-01-27T14:00:38.113Z,53.33
2024-01-27T14:03:40.245Z,55.68
2024-01-27T14:06:42.105Z,54.74
2024-01-27T14:09:45.948Z,54.28
2024-01-27T14:12:47.582Z,57.42
2024-01-27T14:15:49.650Z,63.36
2024-01-27T14:18:52.043Z,58.26
2024-01-27T14:21:53.692Z,57.73
2024-01-27T14:24:55.788Z,57.47
2024-01-27T14:27:57.547Z,56.68
2024-01-27T14:30:59.286Z,56.87
2024-01-27T14:34:01.091Z,58.02
2024-01-27T14:37:03.903Z,60.27
2024-01-27T14:40:06.276Z,60.82
2024-01-27T14:43:12.553Z,61.35
2024-01-27T14:46:15.411Z,59.23
2024-01-27T14:49:17.305Z,59.13
2024-01-27T14:52:19.156Z,61.15
2024-01-27T14:55:20.910Z,63.70
2024-01-27T14:58:23.361Z,63.89
2024-01-27T15:01:25.098Z,66.46
2024-01-27T15:04:27.963Z,69.21
2024-01-27T15:07:32.017Z,72.00
2024-01-27T15:10:34.216Z,69.20
2024-01-27T15:13:36.035Z,71.34
2024-01-27T15:16:37.730Z,71.52
2024-01-27T15:19:41.138Z,74.98
2024-01-27T15:22:44.215Z,74.54
2024-01-27T15:25:46.745Z,74.44
2024-01-27T15:28:48.575Z,75.73
2024-01-27T15:31:50.220Z,77.09
2024-01-27T15:34:52.733Z,76.41
2024-01-27T15:37:54.517Z,77.48
2024-01-27T15:40:56.333Z,76.61
2024-01-27T15:43:58.567Z,78.57
2024-01-27T15:47:01.306Z,77.96
2024-01-27T15:50:07.491Z,78.87
2024-01-27T15:53:09.498Z,79.83
2024-01-27T15:56:11.542Z,79.42
2024-01-27T15:59:14.750Z,81.31
2024-01-27T16:02:16.499Z,84.26
2024-01-27T16:05:18.626Z,83.68
2024-01-27T16:08:20.323Z,84.03
2024-01-27T16:11:21.978Z,85.33
2024-01-27T16:14:23.838Z,86.26
2024-01-27T16:17:26.242Z,87.37
2024-01-27T16:20:27.962Z,87.07
2024-01-27T16:23:29.677Z,87.36
2024-01-27T16:26:31.371Z,86.01
2024-01-27T16:29:33.035Z,86.83
2024-01-27T16:32:34.907Z,85.82
2024-01-27T16:35:36.627Z,85.55
2024-01-27T16:38:38.302Z,87.72
2024-01-27T16:41:40.013Z,87.96
2024-01-27T16:44:41.660Z,88.12
2024-01-27T16:47:43.435Z,89.48
2024-01-27T16:50:45.649Z,91.53
2024-01-27T16:53:47.385Z,91.11
2024-01-27T16:56:49.116Z,92.00
2024-01-27T16:59:50.856Z,96.11
2024-01-27T17:02:52.562Z,94.49
2024-01-27T17:05:54.294Z,96.25
2024-01-27T17:08:56.144Z,96.35
2024-01-27T17:11:58.080Z,95.43
2024-01-27T17:15:00.644Z,95.75
2024-01-27T17:18:02.433Z,96.25
2024-01-27T17:21:05.226Z,97.22
2024-01-27T17:24:07.602Z,99.26
2024-01-27T17:27:09.770Z,98.85
2024-01-27T17:30:12.677Z,98.16
2024-01-27T17:33:14.514Z,98.64
2024-01-27T17:36:16.309Z,99.11
2024-01-27T17:39:18.296Z,100.00
2024-01-27T17:42:20.153Z,100.00
2024-01-27T17:45:21.996Z,100.00
2024-01-27T17:48:23.832Z,100.00
2024-01-27T17:51:26.348Z,100.00
2024-01-27T17:54:30.978Z,100.00
2024-01-27T17:57:35.359Z,100.00
2024-01-27T18:00:37.232Z,100.00
2024-01-27T18:03:39.037Z,100.00
2024-01-27T18:06:40.938Z,100.00
2024-01-27T18:09:42.818Z,100.00
2024-01-27T18:12:44.675Z,100.00
2024-01-27T18:15:46.472Z,100.00
2024-01-27T18:18:48.243Z,100.00
2024-01-27T18:21:51.365Z,100.00
2024-01-27T18:24:54.868Z,100.00
2024-01-27T18:27:56.552Z,100.00
2024-01-27T18:30:58.457Z,100.00
2024-01-27T18:34:00.280Z,100.00
2024-01-27T18:37:02.085Z,100.00
2024-01-27T18:40:05.800Z,100.00
2024-01-27T18:43:07.621Z,100.00
2024-01-27T18:46:09.483Z,100.00
2024-01-27T18:49:11.403Z,100.00
2024-01-27T18:52:13.296Z,100.00
2024-01-27T18:55:15.833Z,100.00
2024-01-27T18:58:22.849Z,100.00
2024-01-27T19:01:24.605Z,100.00
2024-01-27T19:04:26.891Z,100.00
2024-01-27T19:07:28.645Z,100.00
2024-01-27T19:10:30.337Z,100.00
2024-01-27T19:13:32.106Z,100.00
2024-01-27T19:16:34.042Z,100.00
2024-01-27T19:19:36.099Z,100.00
2024-01-27T19:22:38.303Z,100.00
2024-01-27T19:25:41.117Z,100.00
2024-01-27T19:28:42.903Z,100.00
2024-01-27T19:31:47.916Z,100.00
2024-01-27T19:34:49.748Z,100.00
2024-01-27T19:37:52.089Z,100.00
2024-01-27T19:41:02.999Z,100.00
2024-01-27T19:44:13.793Z,100.00
2024-01-27T19:47:15.560Z,100.00
2024-01-27T19:50:17.514Z,100.00
2024-01-27T19:53:19.536Z,100.00
2024-01-27T19:56:21.354Z,100.00
2024-01-27T19:59:23.458Z,100.00
2024-01-27T20:02:25.678Z,100.00
2024-01-27T20:05:27.756Z,100.00
2024-01-27T20:08:29.595Z,100.00
2024-01-27T20:11:31.455Z,100.00
2024-01-27T20:14:33.571Z,100.00
2024-01-27T20:17:36.818Z,100.00
2024-01-27T20:20:39.550Z,100.00
2024-01-27T20:23:41.669Z,100.00
2024-01-27T20:26:45.192Z,100.00
2024-01-27T20:29:46.974Z,100.00
2024-01-27T20:32:50.878Z,100.00
2024-01-27T20:35:52.615Z,100.00
2024-01-27T20:38:54.919Z,100.00
2024-01-27T20:41:56.758Z,100.00
2024-01-27T20:44:59.268Z,100.00
2024-01-27T20:48:01.281Z,100.00
2024-01-27T20:51:03.794Z,100.00
2024-01-27T20:54:05.765Z,100.00
2024-01-27T20:57:07.554Z,100.00
2024-01-27T21:00:10.838Z,100.00
2024-01-27T21:03:12.692Z,100.00
2024-01-27T21:06:14.597Z,100.00
2024-01-27T21:09:16.416Z,100.00
2024-01-27T21:12:18.287Z,100.00
2024-01-27T21:15:20.342Z,100.00
2024-01-27T21:18:22.125Z,100.00
2024-01-27T21:21:23.933Z,100.00
2024-01-27T21:24:25.751Z,100.00
2024-01-27T21:27:27.613Z,100.00
2024-01-27T21:30:31.373Z,100.00
2024-01-27T21:33:34.874Z,100.00
2024-01-27T21:36:36.659Z,100.00
2024-01-27T21:39:38.485Z,100.00
2024-01-27T21:42:40.273Z,100.00
2024-01-27T21:45:42.168Z,100.00
2024-01-27T21:48:44.077Z,100.00
2024-01-27T21:51:49.621Z,100.00
2024-01-27T21:54:51.380Z,100.00
2024-01-27T21:57:54.558Z,100.00
2024-01-27T22:00:56.447Z,100.00
2024-01-27T22:03:58.862Z,100.00
2024-01-27T22:07:00.833Z,100.00
2024-01-27T22:10:02.883Z,100.00
2024-01-27T22:13:04.879Z,100.00
2024-01-27T22:16:07.192Z,100.00
2024-01-27T22:19:09.000Z,100.00
2024-01-27T22:22:10.670Z,100.00
2024-01-27T22:25:12.787Z,100.00
2024-01-27T22:28:14.601Z,100.00
2024-01-27T22:31:16.194Z,100.00
2024-01-27T22:34:18.154Z,100.00
2024-01-27T22:37:20.130Z,100.00
2024-01-27T22:40:22.020Z,100.00
2024-01-27T22:43:23.712Z,100.00
2024-01-27T22:46:26.015Z,100.00
2024-01-27T22:49:27.841Z,100.00
2024-01-27T22:52:30.288Z,100.00
2024-01-27T22:55:31.940Z,100.00
2024-01-27T22:58:33.858Z,100.00
2024-01-27T23:01:35.617Z,100.00
2024-01-27T23:04:37.890Z,100.00
2024-01-27T23:07:40.497Z,100.00
2024-01-27T23:10:44.180Z,100.00
2024-01-27T23:13:45.900Z,100.00
2024-01-27T23:16:47.621Z,100.00
2024-01-27T23:19:49.508Z,100.00
2024-01-27T23:22:51.394Z,100.00
2024-01-27T23:25:53.380Z,100.00
2024-01-27T23:28:55.759Z,100.00
2024-01-27T23:31:57.497Z,100.00
2024-01-27T23:34:59.264Z,100.00
2024-01-27T23:38:00.978Z,100.00
2024-01-27T23:41:03.228Z,100.00
2024-01-27T23:44:05.056Z,100.00
2024-01-27T23:47:06.757Z,100.00
2024-01-27T23:50:08.946Z,100.00
2024-01-27T23:53:12.837Z,100.00
2024-01-27T23:56:14.731Z,100.00
2024-01-27T23:59:16.728Z,100.00
